Time;durP1;ratioP1;P1;durP2;ratioP2;P2;SDS_P1;SDS_P2;PMS_P1;PMS_P2;Temp;Humidity;BMP_temperature;BMP_pressure;BME280_temperature;BME280_humidity;BME280_pressure;Samples;Min_cycle;Max_cycle;Signal;HPM_P1;HPM_P2
2021/01/21 00:00:59;;;;;;;122.70;65.05;;;1.40;99.90;;;;;;6214970;23;20004;-85
2021/01/21 00:03:24;;;;;;;129.20;67.28;;;1.30;99.90;;;;;;6189092;23;20004;-80
2021/01/21 00:05:50;;;;;;;130.95;69.70;;;1.20;99.90;;;;;;6219461;23;20078;-83
2021/01/21 00:08:16;;;;;;;131.63;66.13;;;1.20;99.90;;;;;;6219433;23;20075;-81
2021/01/21 00:10:42;;;;;;;128.90;68.70;;;1.20;99.90;;;;;;6219062;23;20575;-85
2021/01/21 00:13:07;;;;;;;131.25;68.93;;;1.30;99.90;;;;;;6220142;23;20012;-85
2021/01/21 00:18:57;;;;;;;130.77;70.10;;;1.10;99.90;;;;;;6220657;23;20028;-86
2021/01/21 00:21:23;;;;;;;138.85;73.43;;;1.00;99.90;;;;;;6218987;23;20074;-81
2021/01/21 00:24:01;;;;;;;151.15;78.85;;;1.20;99.90;;;;;;6221430;23;20012;-84
2021/01/21 00:26:27;;;;;;;136.10;73.43;;;1.20;99.90;;;;;;6218541;23;20112;-85
2021/01/21 00:28:56;;;;;;;148.18;76.97;;;1.20;99.90;;;;;;6191167;23;20083;-79
2021/01/21 00:31:22;;;;;;;149.23;77.05;;;1.00;99.90;;;;;;6217498;23;20000;-85
2021/01/21 00:33:48;;;;;;;142.98;77.00;;;1.20;99.90;;;;;;6195200;23;20036;-88
2021/01/21 00:36:27;;;;;;;141.20;74.55;;;1.20;99.90;;;;;;6198395;23;20020;-90
2021/01/21 00:38:53;;;;;;;145.77;75.47;;;1.00;99.90;;;;;;6223315;23;20058;-84
2021/01/21 00:41:18;;;;;;;145.00;76.97;;;1.00;99.90;;;;;;6221824;23;20005;-88
2021/01/21 00:43:44;;;;;;;143.93;75.38;;;1.10;99.90;;;;;;6195221;23;20030;-85
2021/01/21 00:46:37;;;;;;;146.38;77.30;;;1.10;99.90;;;;;;6221439;23;20031;-90
2021/01/21 00:51:36;;;;;;;131.60;73.18;;;1.10;99.90;;;;;;6252237;23;20069;-85
2021/01/21 00:54:02;;;;;;;140.23;73.10;;;1.00;99.90;;;;;;6223352;23;20071;-82
2021/01/21 00:56:28;;;;;;;137.15;71.95;;;1.00;99.90;;;;;;6250118;23;19993;-90
2021/01/21 00:58:54;;;;;;;136.93;73.97;;;0.90;99.90;;;;;;6252751;23;20012;-85
2021/01/21 01:01:21;;;;;;;134.23;69.47;;;0.80;99.90;;;;;;6253278;23;20044;-81
2021/01/21 01:03:47;;;;;;;130.80;65.75;;;0.50;99.90;;;;;;6235824;23;20481;-86
2021/01/21 01:06:12;;;;;;;127.13;66.72;;;0.50;99.90;;;;;;6224169;23;20084;-87
2021/01/21 01:08:38;;;;;;;125.55;63.45;;;0.50;99.90;;;;;;6251842;23;20073;-85
2021/01/21 01:11:04;;;;;;;122.07;68.85;;;0.70;99.90;;;;;;6248461;23;20000;-86
2021/01/21 01:13:33;;;;;;;131.88;70.68;;;0.70;99.90;;;;;;6250454;23;19999;-86
2021/01/21 01:16:05;;;;;;;131.98;67.07;;;0.60;99.90;;;;;;6244450;23;20437;-83
2021/01/21 01:18:31;;;;;;;138.15;69.30;;;0.80;99.90;;;;;;6247393;23;20019;-86
2021/01/21 01:20:57;;;;;;;132.75;72.18;;;1.00;99.90;;;;;;6246983;23;20057;-82
2021/01/21 01:23:23;;;;;;;148.02;74.22;;;0.90;99.90;;;;;;6219389;23;20086;-82
2021/01/21 01:25:49;;;;;;;144.63;75.18;;;0.90;99.90;;;;;;6246168;23;20067;-84
2021/01/21 01:28:20;;;;;;;136.45;73.32;;;0.70;99.90;;;;;;6219451;23;20007;-83
2021/01/21 01:30:46;;;;;;;153.13;81.03;;;0.90;99.90;;;;;;6246756;23;20004;-83
2021/01/21 01:33:20;;;;;;;157.27;80.32;;;0.90;99.90;;;;;;6244851;23;20026;-82
2021/01/21 01:35:46;;;;;;;167.88;82.13;;;0.90;99.90;;;;;;6220034;23;20051;-81
2021/01/21 01:38:18;;;;;;;152.45;81.53;;;1.00;99.90;;;;;;6245611;23;19996;-82
2021/01/21 01:40:43;;;;;;;169.13;85.18;;;1.00;99.90;;;;;;6220144;23;20015;-84
2021/01/21 01:43:19;;;;;;;;;;;;;;;;;;;;;
2021/01/21 01:46:03;;;;;;;169.82;90.57;;;0.60;99.90;;;;;;6247110;23;20095;-82
2021/01/21 01:48:32;;;;;;;173.73;87.88;;;0.30;99.90;;;;;;6245056;23;20004;-84
2021/01/21 01:51:01;;;;;;;170.75;88.25;;;0.50;99.90;;;;;;6247245;23;20035;-83
2021/01/21 01:53:31;;;;;;;171.25;86.13;;;0.70;99.90;;;;;;6245572;23;20335;-83
2021/01/21 01:56:01;;;;;;;187.70;93.15;;;0.80;99.90;;;;;;6246227;23;20011;-84
2021/01/21 01:58:29;;;;;;;169.43;85.13;;;0.40;99.90;;;;;;6245679;23;20389;-84
2021/01/21 02:00:56;;;;;;;162.15;85.60;;;0.70;99.90;;;;;;6246601;23;20000;-83
2021/01/21 02:03:22;;;;;;;165.43;84.50;;;0.80;99.90;;;;;;6246052;23;20050;-83
2021/01/21 02:05:49;;;;;;;167.60;82.45;;;0.70;99.90;;;;;;6244649;23;20011;-84
2021/01/21 02:08:15;;;;;;;158.25;78.07;;;0.60;99.90;;;;;;6218994;23;20004;-83
2021/01/21 02:10:41;;;;;;;142.73;74.75;;;0.70;99.90;;;;;;6245727;23;20315;-83
2021/01/21 02:13:31;;;;;;;140.30;71.05;;;0.70;99.90;;;;;;6245755;23;20002;-82
2021/01/21 02:16:18;;;;;;;127.30;63.97;;;0.40;99.90;;;;;;6218844;23;20004;-83
2021/01/21 02:19:25;;;;;;;109.55;58.60;;;0.60;99.90;;;;;;6245343;23;20015;-83
2021/01/21 02:22:09;;;;;;;103.55;55.72;;;0.60;99.90;;;;;;6245574;23;20075;-83
2021/01/21 02:24:34;;;;;;;97.22;52.83;;;0.50;99.90;;;;;;6244954;23;20004;-82
2021/01/21 02:27:05;;;;;;;104.90;53.25;;;0.50;99.90;;;;;;6245130;23;20010;-82
2021/01/21 02:29:32;;;;;;;95.57;50.75;;;0.60;99.90;;;;;;6245449;23;19999;-83
2021/01/21 02:32:01;;;;;;;86.85;49.63;;;0.50;99.90;;;;;;6248923;23;20000;-84
2021/01/21 02:35:05;;;;;;;94.47;50.83;;;0.50;99.90;;;;;;6219741;23;20010;-85
2021/01/21 02:40:54;;;;;;;94.30;47.67;;;0.10;99.90;;;;;;6247124;23;20464;-81
2021/01/21 02:43:19;;;;;;;88.10;46.05;;;0.40;99.90;;;;;;6245819;23;20000;-82
2021/01/21 02:45:54;;;;;;;92.25;49.00;;;0.50;99.90;;;;;;6246115;23;20008;-87
2021/01/21 02:48:52;;;;;;;86.90;45.15;;;0.30;99.90;;;;;;6246873;23;20036;-85
2021/01/21 02:51:28;;;;;;;92.20;46.85;;;0.40;99.90;;;;;;6219660;23;20026;-87
2021/01/21 02:54:35;;;;;;;86.40;46.83;;;0.40;99.90;;;;;;6245932;23;20007;-83
2021/01/21 02:57:23;;;;;;;79.13;43.88;;;0.10;99.90;;;;;;6194500;23;20054;-84
2021/01/21 02:59:54;;;;;;;83.18;42.60;;;0.20;99.90;;;;;;6244828;23;20008;-83
2021/01/21 03:02:26;;;;;;;80.35;43.17;;;0.00;99.90;;;;;;6245922;23;20005;-81
2021/01/21 03:04:59;;;;;;;83.63;44.33;;;0.00;99.90;;;;;;6216105;23;20008;-84
2021/01/21 03:07:25;;;;;;;81.15;42.85;;;0.10;99.90;;;;;;6218606;23;20083;-85
2021/01/21 03:09:51;;;;;;;77.03;42.05;;;0.20;99.90;;;;;;6245813;23;20005;-84
2021/01/21 03:12:22;;;;;;;72.28;41.03;;;-0.10;99.90;;;;;;6245868;23;20007;-82
2021/01/21 03:14:51;;;;;;;66.07;41.30;;;-0.10;99.90;;;;;;6245462;23;20003;-85
2021/01/21 03:17:18;;;;;;;73.45;40.72;;;0.20;99.90;;;;;;6219327;23;20000;-82
2021/01/21 03:19:52;;;;;;;72.38;39.97;;;0.20;99.90;;;;;;6220990;23;20043;-85
2021/01/21 03:22:18;;;;;;;70.20;40.63;;;0.30;99.90;;;;;;6220743;23;20005;-85
2021/01/21 03:24:45;;;;;;;75.50;39.75;;;0.30;99.90;;;;;;6247580;23;20005;-86
2021/01/21 03:27:11;;;;;;;77.45;40.75;;;0.00;99.90;;;;;;6246905;23;20381;-83
2021/01/21 03:29:39;;;;;;;79.32;41.35;;;-0.10;99.90;;;;;;6246059;23;20469;-84
2021/01/21 03:32:05;;;;;;;77.03;41.50;;;0.10;99.90;;;;;;6219583;23;19996;-84
2021/01/21 03:34:32;;;;;;;79.88;42.50;;;0.20;99.90;;;;;;6245812;23;20000;-83
2021/01/21 03:37:00;;;;;;;70.88;41.00;;;0.20;99.90;;;;;;6219561;23;20371;-86
2021/01/21 03:39:40;;;;;;;78.00;40.58;;;0.20;99.90;;;;;;6247846;22;20024;-85
2021/01/21 03:42:18;;;;;;;76.80;42.38;;;0.10;99.90;;;;;;6249298;23;20012;-86
2021/01/21 03:44:44;;;;;;;78.53;41.88;;;0.10;99.90;;;;;;6247711;23;20023;-83
2021/01/21 03:47:23;;;;;;;77.28;42.13;;;0.30;99.90;;;;;;6221509;23;20007;-86
2021/01/21 03:49:49;;;;;;;77.07;41.55;;;0.20;99.90;;;;;;6248248;23;20019;-84
2021/01/21 03:52:14;;;;;;;84.68;42.58;;;0.30;99.90;;;;;;6249502;23;20005;-85
2021/01/21 03:55:03;;;;;;;78.68;43.40;;;0.30;99.90;;;;;;6249141;23;20008;-85
2021/01/21 03:57:29;;;;;;;74.65;41.05;;;0.20;99.90;;;;;;6222943;23;20050;-86
2021/01/21 03:59:54;;;;;;;79.47;42.45;;;0.10;99.90;;;;;;6246801;23;20094;-84
2021/01/21 04:02:20;;;;;;;76.15;42.80;;;0.20;99.90;;;;;;6246032;23;20095;-84
2021/01/21 04:04:58;;;;;;;87.50;46.40;;;0.20;99.90;;;;;;6247861;23;20375;-81
2021/01/21 04:07:37;;;;;;;80.57;44.53;;;0.20;99.90;;;;;;6249134;23;19996;-85
2021/01/21 04:13:29;;;;;;;78.40;43.38;;;-0.10;99.90;;;;;;6247003;23;20008;-83
2021/01/21 04:15:54;;;;;;;95.43;45.92;;;0.10;99.90;;;;;;6245946;23;20091;-84
2021/01/21 04:18:20;;;;;;;84.32;43.15;;;0.10;99.90;;;;;;6221021;23;20043;-83
2021/01/21 04:20:46;;;;;;;77.07;42.47;;;0.10;99.90;;;;;;6221834;23;20016;-82
2021/01/21 04:23:19;;;;;;;83.15;43.80;;;0.10;99.90;;;;;;6246254;23;20027;-83
2021/01/21 04:25:45;;;;;;;74.22;40.40;;;-0.10;99.90;;;;;;6220780;23;20008;-83
2021/01/21 04:28:11;;;;;;;73.22;41.35;;;-0.20;99.90;;;;;;6246927;23;20043;-84
2021/01/21 04:30:43;;;;;;;75.60;41.20;;;-0.10;99.90;;;;;;6246419;23;20007;-86
2021/01/21 04:33:08;;;;;;;74.78;40.17;;;-0.30;99.90;;;;;;6247565;23;20030;-83
2021/01/21 04:35:41;;;;;;;70.57;40.60;;;-0.20;99.90;;;;;;6247957;23;20395;-84
2021/01/21 04:38:07;;;;;;;79.05;40.03;;;-0.10;99.90;;;;;;6247205;23;20032;-85
2021/01/21 04:40:44;;;;;;;69.45;37.40;;;0.00;99.90;;;;;;6248162;23;20015;-82
2021/01/21 04:43:10;;;;;;;75.03;37.28;;;-0.40;99.90;;;;;;6221800;23;20004;-85
2021/01/21 04:45:36;;;;;;;77.40;40.17;;;-0.40;99.90;;;;;;6247974;23;20081;-83
2021/01/21 04:48:02;;;;;;;74.78;38.47;;;-0.40;99.90;;;;;;6246876;23;20004;-81
2021/01/21 04:50:29;;;;;;;72.97;38.88;;;-0.20;99.90;;;;;;6246180;23;20016;-82
2021/01/21 04:52:57;;;;;;;70.03;38.90;;;0.00;99.90;;;;;;6219970;23;20035;-83
2021/01/21 04:55:38;;;;;;;77.30;39.45;;;0.00;99.90;;;;;;6246380;23;20051;-82
2021/01/21 04:58:29;;;;;;;75.85;39.45;;;0.00;99.90;;;;;;6246663;23;20080;-81
2021/01/21 05:00:56;;;;;;;73.88;40.28;;;-0.10;99.90;;;;;;6219761;23;20039;-83
2021/01/21 05:03:22;;;;;;;71.53;39.90;;;-0.20;99.90;;;;;;6220428;23;20449;-83
2021/01/21 05:05:48;;;;;;;77.60;39.60;;;-0.40;99.90;;;;;;6246675;23;20000;-82
2021/01/21 05:08:15;;;;;;;75.72;40.80;;;-0.40;99.90;;;;;;6220803;23;20019;-85
2021/01/21 05:10:41;;;;;;;77.45;40.08;;;-0.40;99.90;;;;;;6246837;23;20434;-84
2021/01/21 05:13:07;;;;;;;76.97;39.80;;;-0.20;99.90;;;;;;6246811;23;20046;-85
2021/01/21 05:15:57;;;;;;;70.95;40.15;;;-0.30;99.90;;;;;;6244978;23;20004;-81
2021/01/21 05:18:34;;;;;;;74.57;38.65;;;-0.30;99.90;;;;;;6220026;23;20058;-81
2021/01/21 05:21:20;;;;;;;69.28;37.30;;;-0.10;99.90;;;;;;6246274;23;20323;-82
2021/01/21 05:23:47;;;;;;;73.50;38.38;;;0.00;99.90;;;;;;6244987;23;20058;-85
2021/01/21 05:26:13;;;;;;;64.18;37.45;;;0.00;99.90;;;;;;6246728;23;20058;-82
2021/01/21 05:28:39;;;;;;;78.50;39.42;;;-0.20;99.90;;;;;;6244999;23;20330;-81
2021/01/21 05:31:06;;;;;;;66.93;37.72;;;-0.20;99.90;;;;;;6219388;23;20506;-84
2021/01/21 05:33:35;;;;;;;70.82;39.53;;;-0.50;99.90;;;;;;6220316;23;20011;-84
2021/01/21 05:36:04;;;;;;;74.65;38.38;;;-0.20;99.90;;;;;;6246154;23;20000;-83
2021/01/21 05:39:12;;;;;;;69.72;38.58;;;-0.10;99.90;;;;;;6246210;23;20058;-83
2021/01/21 05:41:38;;;;;;;74.00;38.05;;;-0.10;99.90;;;;;;6246143;23;20372;-82
2021/01/21 05:44:07;;;;;;;77.90;38.63;;;-0.30;99.90;;;;;;6246523;23;20466;-82
2021/01/21 05:50:38;;;;;;;70.28;37.85;;;-0.10;99.90;;;;;;6100441;23;20110;-82
2021/01/21 05:53:07;;;;;;;73.45;38.80;;;-0.20;99.90;;;;;;6244746;22;20023;-84
2021/01/21 05:55:45;;;;;;;71.32;38.00;;;-0.10;99.90;;;;;;6218506;23;20066;-84
2021/01/21 05:58:11;;;;;;;69.82;39.13;;;0.00;99.90;;;;;;6219442;23;20349;-83
2021/01/21 06:00:43;;;;;;;73.90;38.55;;;0.00;99.90;;;;;;6219533;23;20416;-83
2021/01/21 06:03:09;;;;;;;72.85;40.35;;;0.20;99.90;;;;;;6246412;23;19996;-82
2021/01/21 06:05:36;;;;;;;71.60;38.75;;;0.10;99.90;;;;;;6245410;23;20000;-85
2021/01/21 06:08:03;;;;;;;63.33;37.05;;;0.20;99.90;;;;;;6220354;23;20000;-87
2021/01/21 06:10:33;;;;;;;66.53;38.60;;;0.20;99.90;;;;;;6219323;23;20000;-83
2021/01/21 06:13:04;;;;;;;63.90;34.63;;;0.20;99.90;;;;;;6219582;23;20072;-84
2021/01/21 06:17:58;;;;;;;83.80;41.97;;;0.30;99.90;;;;;;6240132;22;20043;-87
2021/01/21 06:20:23;;;;;;;77.18;40.00;;;0.60;99.90;;;;;;6219622;23;20075;-83
2021/01/21 06:22:54;;;;;;;74.03;38.60;;;0.70;99.90;;;;;;6220285;23;20000;-84
2021/01/21 06:25:21;;;;;;;65.28;36.40;;;0.50;99.90;;;;;;6218689;23;20031;-82
2021/01/21 06:27:47;;;;;;;66.43;36.05;;;0.50;99.90;;;;;;6218279;23;20020;-82
2021/01/21 06:30:18;;;;;;;65.30;37.03;;;0.30;99.90;;;;;;6219098;23;20054;-81
2021/01/21 06:32:56;;;;;;;60.78;35.50;;;0.30;99.90;;;;;;6219050;23;20097;-83
2021/01/21 06:35:24;;;;;;;61.47;37.30;;;0.40;99.90;;;;;;6217525;23;20004;-81
2021/01/21 06:37:55;;;;;;;62.63;33.28;;;0.10;99.90;;;;;;6219601;23;20000;-80
2021/01/21 06:40:24;;;;;;;60.63;34.38;;;0.10;99.90;;;;;;6246172;23;20011;-81
2021/01/21 06:43:02;;;;;;;64.32;34.65;;;0.10;99.90;;;;;;6245365;23;19996;-83
2021/01/21 06:45:33;;;;;;;64.65;36.40;;;0.10;99.90;;;;;;6246400;23;20071;-85
2021/01/21 06:47:59;;;;;;;67.63;36.20;;;0.20;99.90;;;;;;6219829;23;19996;-84
2021/01/21 06:50:32;;;;;;;68.78;34.65;;;-0.10;99.90;;;;;;6194020;23;20012;-80
2021/01/21 06:53:03;;;;;;;67.88;35.78;;;-0.30;99.90;;;;;;6246970;23;19999;-84
2021/01/21 06:55:30;;;;;;;65.28;37.10;;;-0.20;99.90;;;;;;6220535;23;20011;-86
2021/01/21 06:57:56;;;;;;;66.97;36.40;;;-0.40;99.90;;;;;;6216017;23;20429;-84
2021/01/21 07:00:34;;;;;;;75.43;40.10;;;-0.20;99.90;;;;;;6217376;23;20065;-84
2021/01/21 07:03:04;;;;;;;76.68;36.33;;;0.00;99.90;;;;;;6218698;23;20016;-85
2021/01/21 07:09:24;;;;;;;137.10;68.00;;;0.70;99.90;;;;;;6248973;23;20011;-85
2021/01/21 07:12:16;;;;;;;64.70;38.92;;;1.90;99.90;;;;;;6219301;23;20008;-86
2021/01/21 07:14:41;;;;;;;63.45;36.45;;;1.30;99.90;;;;;;6245956;23;20004;-84
2021/01/21 07:17:08;;;;;;;66.90;37.58;;;0.90;99.90;;;;;;6245140;23;20021;-81
2021/01/21 07:19:40;;;;;;;69.18;38.83;;;1.00;99.90;;;;;;6245287;23;20527;-83
2021/01/21 07:22:24;;;;;;;75.10;38.40;;;0.70;99.90;;;;;;6245055;23;20000;-83
2021/01/21 07:25:27;;;;;;;75.82;39.80;;;0.60;99.90;;;;;;6218617;23;20004;-84
2021/01/21 07:27:54;;;;;;;74.85;40.33;;;0.60;99.90;;;;;;6214729;23;20307;-85
2021/01/21 07:30:26;;;;;;;78.80;44.92;;;0.80;99.90;;;;;;6217701;23;20019;-82
2021/01/21 07:33:20;;;;;;;91.43;46.88;;;0.60;99.90;;;;;;6243272;23;20337;-84
2021/01/21 07:35:46;;;;;;;98.00;51.10;;;0.90;99.90;;;;;;6219147;23;20008;-85
2021/01/21 07:38:41;;;;;;;99.38;50.67;;;0.90;99.90;;;;;;6244975;23;20000;-85
2021/01/21 07:41:07;;;;;;;86.68;47.53;;;1.00;99.90;;;;;;6218001;23;20067;-85
2021/01/21 07:43:58;;;;;;;82.63;43.53;;;1.10;99.90;;;;;;6217084;23;20453;-84
2021/01/21 07:46:27;;;;;;;76.68;41.83;;;1.20;99.90;;;;;;6217373;23;20008;-81
2021/01/21 07:49:21;;;;;;;87.07;46.60;;;1.30;99.90;;;;;;6244770;23;20083;-85
2021/01/21 07:52:06;;;;;;;94.28;51.60;;;1.20;99.90;;;;;;6244550;23;20000;-84
2021/01/21 07:54:44;;;;;;;108.95;58.92;;;0.90;99.90;;;;;;6217863;23;20000;-82
2021/01/21 07:57:21;;;;;;;126.95;64.70;;;0.70;99.90;;;;;;6244509;23;20012;-82
2021/01/21 08:00:04;;;;;;;148.85;76.78;;;1.00;99.90;;;;;;6218935;23;20105;-82
2021/01/21 08:07:55;;;;;;;157.02;82.13;;;1.10;99.90;;;;;;6211836;22;20055;-82
2021/01/21 08:10:48;;;;;;;156.68;82.15;;;1.40;99.90;;;;;;6188179;23;20043;-85
2021/01/21 08:13:23;;;;;;;155.15;85.30;;;1.80;99.90;;;;;;6187820;23;20005;-81
2021/01/21 08:15:52;;;;;;;156.15;84.05;;;1.90;99.90;;;;;;6187709;23;20092;-85
2021/01/21 08:18:18;;;;;;;147.55;80.82;;;2.20;99.90;;;;;;6213305;23;20000;-84
2021/01/21 08:20:44;;;;;;;154.63;83.03;;;2.40;99.90;;;;;;6213944;23;20327;-84
2021/01/21 08:23:10;;;;;;;155.38;81.32;;;2.60;99.90;;;;;;6188187;23;20012;-83
2021/01/21 08:25:50;;;;;;;150.52;83.00;;;2.70;99.90;;;;;;6214339;23;20047;-85
2021/01/21 08:28:18;;;;;;;138.45;79.40;;;2.90;99.90;;;;;;6216824;23;20335;-82
2021/01/21 08:30:45;;;;;;;133.55;74.63;;;3.30;99.90;;;;;;6217094;23;20380;-85
2021/01/21 08:33:22;;;;;;;139.65;75.30;;;3.20;99.90;;;;;;6219221;23;20316;-89
2021/01/21 08:35:54;;;;;;;136.95;76.47;;;3.50;99.90;;;;;;6219564;23;20418;-83
2021/01/21 08:38:24;;;;;;;128.57;69.90;;;3.40;99.90;;;;;;6191809;23;20009;-85
2021/01/21 08:40:52;;;;;;;125.18;69.72;;;3.60;99.90;;;;;;6219260;23;20001;-84
2021/01/21 08:43:23;;;;;;;113.85;64.40;;;3.90;99.90;;;;;;6189509;23;20009;-85
2021/01/21 08:45:50;;;;;;;110.35;61.85;;;4.10;99.90;;;;;;6190284;23;20077;-84
2021/01/21 08:48:30;;;;;;;116.50;60.58;;;4.30;98.50;;;;;;6190399;23;20008;-84
2021/01/21 08:50:56;;;;;;;100.53;59.08;;;4.00;99.10;;;;;;6217032;23;20001;-85
2021/01/21 08:53:24;;;;;;;108.80;58.20;;;4.30;98.50;;;;;;6193274;23;20441;-83
2021/01/21 08:55:51;;;;;;;104.55;57.88;;;4.60;97.50;;;;;;6216834;23;20008;-81
2021/01/21 08:58:30;;;;;;;93.03;54.70;;;4.90;96.20;;;;;;6215127;23;20005;-84
2021/01/21 09:01:18;;;;;;;95.97;54.83;;;4.80;95.60;;;;;;6219048;23;20009;-86
2021/01/21 09:03:48;;;;;;;94.85;55.08;;;5.00;94.90;;;;;;6210249;23;20000;-83
2021/01/21 09:06:41;;;;;;;97.53;57.80;;;5.00;94.20;;;;;;6186186;23;20108;-83
2021/01/21 09:09:07;;;;;;;101.72;57.88;;;5.10;94.60;;;;;;6213226;23;20386;-85
2021/01/21 09:11:38;;;;;;;99.40;58.17;;;5.60;93.50;;;;;;6185395;23;20013;-86
2021/01/21 09:14:06;;;;;;;100.70;57.65;;;6.00;91.60;;;;;;6179761;23;20363;-82
2021/01/21 09:16:42;;;;;;;105.78;62.20;;;5.90;90.80;;;;;;6189680;23;20055;-84
2021/01/21 09:19:09;;;;;;;99.85;60.60;;;6.10;90.00;;;;;;6211574;23;20159;-84
2021/01/21 09:21:35;;;;;;;98.72;58.80;;;6.20;89.70;;;;;;6215774;23;20370;-84
2021/01/21 09:24:10;;;;;;;101.72;58.10;;;6.30;86.60;;;;;;6215900;23;20011;-85
2021/01/21 09:26:36;;;;;;;106.28;60.47;;;6.50;86.20;;;;;;6216259;23;20000;-84
2021/01/21 09:29:03;;;;;;;110.55;60.95;;;6.40;84.60;;;;;;6189832;23;20067;-84
2021/01/21 09:31:32;;;;;;;114.28;67.00;;;6.40;83.70;;;;;;6189313;23;20020;-84
2021/01/21 09:33:59;;;;;;;113.10;66.77;;;6.00;86.60;;;;;;6189069;23;20028;-81
2021/01/21 09:36:30;;;;;;;109.75;64.82;;;5.90;86.80;;;;;;6215750;23;20258;-85
2021/01/21 09:38:58;;;;;;;107.18;62.75;;;6.20;85.50;;;;;;6187553;23;20019;-83
2021/01/21 09:41:25;;;;;;;106.28;62.78;;;6.20;82.20;;;;;;6188874;23;20087;-86
2021/01/21 09:43:51;;;;;;;107.93;64.93;;;5.60;86.20;;;;;;6185213;23;20181;-85
2021/01/21 09:46:17;;;;;;;108.75;62.53;;;5.80;88.50;;;;;;6187932;23;20039;-81
2021/01/21 09:48:43;;;;;;;109.57;64.75;;;6.40;85.50;;;;;;6213392;23;20331;-81
2021/01/21 09:51:12;;;;;;;110.78;62.58;;;6.90;82.20;;;;;;6214206;23;20001;-82
2021/01/21 09:53:37;;;;;;;113.28;67.35;;;7.20;80.00;;;;;;6213696;23;20001;-81
2021/01/21 09:56:04;;;;;;;103.93;59.83;;;7.60;78.30;;;;;;6187868;23;20308;-84
2021/01/21 09:58:32;;;;;;;100.85;61.35;;;7.50;76.10;;;;;;6187196;23;20000;-81
2021/01/21 10:01:06;;;;;;;100.10;59.85;;;7.80;76.60;;;;;;6199474;23;20496;-83
2021/01/21 10:03:32;;;;;;;95.38;56.25;;;8.00;73.70;;;;;;6186261;23;20035;-83
2021/01/21 10:05:58;;;;;;;101.60;58.28;;;8.40;72.20;;;;;;6212691;23;20095;-81
2021/01/21 10:08:31;;;;;;;102.85;59.13;;;8.50;70.70;;;;;;6188247;23;20377;-80
2021/01/21 10:10:58;;;;;;;108.22;57.55;;;8.90;69.10;;;;;;6190497;23;20007;-84
2021/01/21 10:13:26;;;;;;;88.22;52.97;;;9.10;68.10;;;;;;6167587;23;20001;-82
2021/01/21 10:15:51;;;;;;;81.03;49.65;;;8.70;67.30;;;;;;6188771;23;20035;-84
2021/01/21 10:18:17;;;;;;;75.40;48.28;;;8.70;67.30;;;;;;6214139;23;19996;-81
2021/01/21 10:20:43;;;;;;;69.80;44.63;;;9.20;66.20;;;;;;6214096;23;20008;-82
2021/01/21 10:23:18;;;;;;;70.47;44.60;;;9.60;64.30;;;;;;6214891;23;20003;-82
2021/01/21 10:25:47;;;;;;;70.32;43.97;;;10.00;63.90;;;;;;6187237;23;20389;-84
2021/01/21 10:28:15;;;;;;;70.05;41.67;;;10.10;62.10;;;;;;6215112;23;19996;-81
2021/01/21 10:30:47;;;;;;;68.78;43.08;;;9.90;62.40;;;;;;6186364;23;20013;-82
2021/01/21 10:33:12;;;;;;;71.35;43.97;;;10.00;61.40;;;;;;6215167;23;20319;-84
2021/01/21 10:35:38;;;;;;;67.15;43.08;;;9.70;60.80;;;;;;6213486;23;19996;-80
2021/01/21 10:38:13;;;;;;;71.22;43.17;;;9.60;62.10;;;;;;6213526;23;20076;-82
2021/01/21 10:40:40;;;;;;;74.80;38.15;;;9.70;61.50;;;;;;6212999;23;20008;-82
2021/01/21 10:43:08;;;;;;;53.72;36.38;;;9.70;61.90;;;;;;6211920;23;20004;-80
2021/01/21 10:45:34;;;;;;;54.78;33.40;;;9.30;61.90;;;;;;6185580;23;20005;-84
2021/01/21 10:48:03;;;;;;;54.45;34.88;;;9.10;62.50;;;;;;6185935;23;20008;-81
2021/01/21 10:50:28;;;;;;;54.63;32.88;;;8.90;63.50;;;;;;6186757;23;20334;-81
2021/01/21 10:53:20;;;;;;;59.03;34.88;;;8.60;63.80;;;;;;6213435;23;20028;-80
2021/01/21 10:55:46;;;;;;;57.08;35.17;;;8.50;64.80;;;;;;6195041;23;20008;-82
2021/01/21 10:58:27;;;;;;;58.42;34.28;;;8.80;65.00;;;;;;6213100;23;20078;-81
2021/01/21 11:00:53;;;;;;;;;;;9.00;64.30;;;;;;6212061;23;20016;-82
2021/01/21 11:03:19;;;;;;;56.58;33.90;;;9.30;63.40;;;;;;6186750;23;19954;-82
2021/01/21 11:05:54;;;;;;;57.33;34.10;;;8.40;64.10;;;;;;6213148;23;20092;-82
2021/01/21 11:08:20;;;;;;;59.20;31.52;;;9.00;63.90;;;;;;6184285;23;20021;-81
2021/01/21 11:10:46;;;;;;;54.40;33.78;;;9.80;62.40;;;;;;6211220;23;20028;-82
2021/01/21 11:13:17;;;;;;;53.25;32.17;;;10.60;60.50;;;;;;6185844;23;20005;-82
2021/01/21 11:15:44;;;;;;;46.00;29.92;;;10.90;59.10;;;;;;6184516;23;20021;-82
2021/01/21 11:18:10;;;;;;;39.25;23.42;;;11.30;57.50;;;;;;6185368;23;20008;-82
2021/01/21 11:20:36;;;;;;;33.83;20.95;;;11.60;56.80;;;;;;6183805;23;20091;-82
2021/01/21 11:23:02;;;;;;;31.98;19.90;;;11.70;56.10;;;;;;6211992;23;20662;-82
2021/01/21 11:25:28;;;;;;;37.15;20.58;;;11.60;55.70;;;;;;6184951;23;20008;-82
2021/01/21 11:28:00;;;;;;;33.95;21.40;;;12.10;55.10;;;;;;6186772;23;20031;-83
2021/01/21 11:30:26;;;;;;;37.28;22.60;;;11.30;53.90;;;;;;6185748;23;20004;-82
2021/01/21 11:32:52;;;;;;;34.10;23.10;;;11.20;55.80;;;;;;6213515;23;20012;-81
2021/01/21 11:35:24;;;;;;;39.40;23.25;;;11.40;56.20;;;;;;6184964;23;20020;-82
2021/01/21 11:37:50;;;;;;;39.90;22.60;;;11.80;55.00;;;;;;6183411;23;20012;-80
2021/01/21 11:40:15;;;;;;;36.40;24.55;;;12.20;53.70;;;;;;6185231;23;20401;-82
2021/01/21 11:42:41;;;;;;;35.60;23.05;;;12.20;54.10;;;;;;6185367;23;20009;-82
2021/01/21 11:45:11;;;;;;;44.75;24.00;;;12.10;53.10;;;;;;6212439;23;20013;-82
2021/01/21 11:47:40;;;;;;;36.92;23.40;;;11.90;53.80;;;;;;6185853;23;20027;-81
2021/01/21 11:50:11;;;;;;;36.72;24.55;;;12.30;53.70;;;;;;6213104;23;20017;-82
2021/01/21 11:52:38;;;;;;;31.15;22.58;;;12.00;52.50;;;;;;6212096;23;20005;-80
2021/01/21 11:55:06;;;;;;;39.97;25.63;;;11.30;54.00;;;;;;6187681;23;20055;-81
2021/01/21 11:57:31;;;;;;;37.50;24.63;;;11.50;53.80;;;;;;6187353;23;20030;-80
2021/01/21 12:00:28;;;;;;;39.60;23.85;;;11.90;54.40;;;;;;6189089;23;20023;-84
2021/01/21 12:02:56;;;;;;;40.40;22.95;;;12.80;52.70;;;;;;6191152;23;20304;-93
2021/01/21 12:08:23;;;;;;;;;;;;;;;;;;;;;
2021/01/21 12:14:07;;;;;;;36.03;23.65;;;15.40;50.70;;;;;;6206298;22;20032;-88
2021/01/21 12:17:33;;;;;;;34.75;21.23;;;16.00;48.60;;;;;;6183073;23;20075;-90
2021/01/21 12:22:36;;;;;;;32.90;20.13;;;15.80;45.80;;;;;;6244307;22;20020;-89
2021/01/21 12:44:09;;;;;;;27.85;18.05;;;13.40;49.70;;;;;;6053912;23;20026;-88
2021/01/21 12:46:35;;;;;;;34.92;20.05;;;13.20;49.00;;;;;;5981897;23;20014;-83
2021/01/21 12:52:28;;;;;;;39.10;21.42;;;12.20;51.60;;;;;;5971843;23;20028;-85
2021/01/21 12:54:57;;;;;;;35.28;21.13;;;11.90;51.90;;;;;;6022944;23;20007;-85
2021/01/21 12:57:30;;;;;;;32.75;21.48;;;12.00;52.50;;;;;;6044437;23;20359;-84
2021/01/21 12:59:57;;;;;;;30.55;19.77;;;12.00;52.80;;;;;;6049047;23;20015;-84
2021/01/21 13:05:01;;;;;;;34.13;20.30;;;12.80;52.50;;;;;;6128772;23;20038;-83
2021/01/21 13:07:27;;;;;;;39.17;20.23;;;12.80;51.20;;;;;;6133404;23;20005;-84
2021/01/21 13:09:53;;;;;;;34.97;20.73;;;12.50;51.20;;;;;;6107707;23;20331;-84
2021/01/21 13:12:24;;;;;;;32.08;21.52;;;11.30;51.60;;;;;;6107793;23;20420;-84
2021/01/21 13:15:38;;;;;;;34.78;20.58;;;9.90;55.70;;;;;;6111395;23;20068;-87
2021/01/21 13:18:55;;;;;;;30.02;19.10;;;9.80;56.70;;;;;;6114666;23;20351;-88
2021/01/21 13:21:23;;;;;;;42.28;20.83;;;10.10;58.20;;;;;;6079075;23;20002;-80
2021/01/21 13:23:53;;;;;;;34.25;21.58;;;9.50;58.00;;;;;;6106261;23;20088;-82
2021/01/21 13:26:19;;;;;;;35.05;21.67;;;9.10;58.50;;;;;;6105728;23;20087;-80
2021/01/21 13:28:45;;;;;;;36.63;24.88;;;8.90;58.70;;;;;;6131714;23;20041;-85
2021/01/21 13:31:11;;;;;;;39.42;23.83;;;8.60;60.00;;;;;;6105779;23;20034;-84
2021/01/21 13:33:37;;;;;;;37.67;23.73;;;9.00;59.30;;;;;;6132171;23;20025;-80
2021/01/21 13:36:05;;;;;;;38.95;22.48;;;9.30;58.70;;;;;;6131921;23;20637;-82
2021/01/21 13:38:31;;;;;;;40.95;23.58;;;9.40;58.50;;;;;;6105973;23;20045;-83
2021/01/21 13:40:59;;;;;;;41.58;25.00;;;9.20;58.70;;;;;;6126801;23;19998;-85
2021/01/21 13:43:25;;;;;;;38.05;23.58;;;9.30;58.80;;;;;;6126125;23;20012;-81
2021/01/21 13:45:52;;;;;;;42.97;24.88;;;8.80;60.20;;;;;;6126353;23;20097;-80
2021/01/21 13:48:17;;;;;;;42.25;24.48;;;8.80;60.50;;;;;;6095047;23;20014;-84
2021/01/21 13:50:52;;;;;;;47.78;26.25;;;9.40;59.70;;;;;;6100479;23;20021;-84
2021/01/21 13:53:18;;;;;;;42.53;24.77;;;9.70;58.70;;;;;;6099541;23;20088;-83
2021/01/21 13:55:44;;;;;;;41.97;26.65;;;9.70;58.60;;;;;;6125702;23;20002;-84